Time;durP1;ratioP1;P1;durP2;ratioP2;P2;SDS_P1;SDS_P2;PMS_P1;PMS_P2;Temp;Humidity;BMP_temperature;BMP_pressure;BME280_temperature;BME280_humidity;BME280_pressure;Samples;Min_cycle;Max_cycle;Signal;HPM_P1;HPM_P2
2023/07/26 00:00:06;;;;;;;4.80;1.85;;;13.50;99.90;;;;;;4948573;28;20085;-80
2023/07/26 00:02:32;;;;;;;3.55;1.98;;;12.90;99.90;;;;;;4970503;28;20039;-79
2023/07/26 00:04:57;;;;;;;3.97;1.70;;;12.90;99.90;;;;;;4965912;28;20077;-79
2023/07/26 00:07:23;;;;;;;3.78;2.00;;;13.10;99.90;;;;;;4946166;29;20043;-79
2023/07/26 00:09:49;;;;;;;3.28;1.90;;;12.90;99.90;;;;;;4964150;28;20082;-79
2023/07/26 00:12:14;;;;;;;6.00;2.05;;;12.90;99.90;;;;;;4967275;28;20673;-78
2023/07/26 00:14:40;;;;;;;3.63;1.65;;;13.20;99.90;;;;;;4966575;28;20043;-78
2023/07/26 00:17:06;;;;;;;2.30;1.60;;;13.00;99.90;;;;;;4965003;28;20043;-79
2023/07/26 00:19:31;;;;;;;4.75;2.25;;;13.00;99.90;;;;;;4963964;28;20046;-78
2023/07/26 00:21:57;;;;;;;2.97;1.88;;;13.00;99.90;;;;;;4964623;28;20574;-78
2023/07/26 00:24:22;;;;;;;4.30;2.03;;;12.90;99.90;;;;;;4967253;28;20053;-78
2023/07/26 00:26:48;;;;;;;5.47;2.05;;;13.00;99.90;;;;;;4966707;28;20372;-79
2023/07/26 00:29:14;;;;;;;4.57;2.08;;;13.00;99.90;;;;;;4948866;28;20399;-79
2023/07/26 00:31:41;;;;;;;7.65;2.15;;;13.00;99.90;;;;;;4966814;28;20117;-79
2023/07/26 00:34:06;;;;;;;2.78;1.85;;;13.10;99.90;;;;;;4947145;28;20054;-79
2023/07/26 00:36:33;;;;;;;4.43;2.20;;;13.00;99.90;;;;;;4962813;28;20043;-78
2023/07/26 00:38:58;;;;;;;4.20;1.70;;;13.50;99.90;;;;;;4947268;28;20563;-79
2023/07/26 00:41:24;;;;;;;5.15;2.00;;;13.00;99.90;;;;;;4966987;28;20038;-78
2023/07/26 00:43:50;;;;;;;4.75;2.30;;;13.00;99.90;;;;;;4965999;28;20424;-78
2023/07/26 00:46:16;;;;;;;2.72;1.90;;;13.00;99.90;;;;;;4955640;28;20034;-78
2023/07/26 00:48:42;;;;;;;4.75;1.75;;;13.00;99.90;;;;;;4927599;29;20539;-79
2023/07/26 00:51:08;;;;;;;2.28;1.98;;;13.00;99.90;;;;;;4964227;28;20138;-80
2023/07/26 00:53:34;;;;;;;5.80;1.70;;;12.90;99.90;;;;;;4976566;28;20066;-79
2023/07/26 00:55:59;;;;;;;3.42;1.92;;;13.00;99.90;;;;;;4977517;28;20034;-80
2023/07/26 00:58:25;;;;;;;2.58;1.63;;;12.90;99.90;;;;;;4963956;28;20496;-80
2023/07/26 01:00:51;;;;;;;2.63;1.73;;;12.90;99.90;;;;;;4963645;28;20399;-79
2023/07/26 01:03:18;;;;;;;5.63;3.03;;;12.90;99.90;;;;;;4974781;28;20042;-79
2023/07/26 01:06:15;;;;;;;2.92;1.77;;;14.00;99.90;;;;;;4955045;28;20483;-79
2023/07/26 01:09:17;;;;;;;2.95;1.88;;;12.90;99.90;;;;;;4941238;29;20077;-79
2023/07/26 01:12:10;;;;;;;3.13;1.88;;;12.90;99.90;;;;;;4938072;28;20087;-80
2023/07/26 01:14:42;;;;;;;4.47;2.00;;;13.10;99.90;;;;;;4957444;28;20125;-80
2023/07/26 01:17:07;;;;;;;2.88;1.95;;;12.80;99.90;;;;;;4964505;28;20047;-80
2023/07/26 01:19:33;;;;;;;3.30;1.73;;;12.80;99.90;;;;;;4966444;28;20050;-80
2023/07/26 01:21:59;;;;;;;2.85;2.25;;;12.80;99.90;;;;;;4965667;28;20039;-80
2023/07/26 01:24:25;;;;;;;7.88;2.38;;;12.80;99.90;;;;;;4962135;28;20090;-80
2023/07/26 01:26:51;;;;;;;4.10;1.63;;;12.80;99.90;;;;;;4945317;29;20074;-80
2023/07/26 01:29:16;;;;;;;3.40;2.20;;;12.70;99.90;;;;;;4967056;28;20647;-80
2023/07/26 01:31:42;;;;;;;3.13;1.77;;;12.80;99.90;;;;;;4966452;28;20046;-79
2023/07/26 01:34:10;;;;;;;4.22;1.98;;;12.80;99.90;;;;;;4950763;28;20046;-79
2023/07/26 01:36:37;;;;;;;2.95;1.90;;;12.80;99.90;;;;;;4964600;28;20039;-79
2023/07/26 01:39:04;;;;;;;3.13;2.22;;;12.80;99.90;;;;;;4966441;28;20054;-80
2023/07/26 01:41:31;;;;;;;6.53;2.20;;;12.80;99.90;;;;;;4963667;28;20043;-81
2023/07/26 01:43:57;;;;;;;2.97;1.88;;;13.80;99.90;;;;;;4963249;28;20122;-80
2023/07/26 01:46:22;;;;;;;2.47;2.05;;;13.90;99.90;;;;;;4937707;29;20130;-79
2023/07/26 01:48:48;;;;;;;7.80;2.28;;;12.80;99.90;;;;;;4963851;28;20031;-80
2023/07/26 01:51:14;;;;;;;3.03;1.95;;;12.80;99.90;;;;;;4965603;28;20047;-81
2023/07/26 01:53:39;;;;;;;3.35;2.38;;;12.80;99.90;;;;;;4941938;29;20047;-81
2023/07/26 01:56:05;;;;;;;4.40;1.83;;;12.80;99.90;;;;;;4962862;28;20047;-81
2023/07/26 01:58:31;;;;;;;3.75;2.17;;;12.70;99.90;;;;;;4965902;28;20038;-80
2023/07/26 02:00:56;;;;;;;4.30;2.13;;;12.70;99.90;;;;;;4947448;28;20129;-81
2023/07/26 02:03:22;;;;;;;2.38;2.17;;;13.20;99.90;;;;;;4961588;28;20082;-80
2023/07/26 02:05:48;;;;;;;4.55;2.00;;;12.70;99.90;;;;;;4961961;28;20050;-81
2023/07/26 02:08:16;;;;;;;3.08;2.40;;;12.60;99.90;;;;;;4963069;28;20396;-81
2023/07/26 02:10:42;;;;;;;4.53;2.08;;;12.60;99.90;;;;;;4965066;28;20569;-81
2023/07/26 02:13:08;;;;;;;2.50;2.30;;;12.60;99.90;;;;;;4964002;28;20122;-80
2023/07/26 02:15:34;;;;;;;2.38;2.10;;;12.60;99.90;;;;;;4960992;28;20043;-81
2023/07/26 02:18:00;;;;;;;4.88;2.13;;;12.60;99.90;;;;;;4962186;28;20037;-81
2023/07/26 02:20:25;;;;;;;3.65;2.08;;;12.60;99.90;;;;;;4953979;28;20122;-78
2023/07/26 02:22:51;;;;;;;3.35;1.88;;;12.60;99.90;;;;;;4962122;28;20093;-78
2023/07/26 02:25:17;;;;;;;3.28;1.98;;;12.60;99.90;;;;;;4984919;28;20041;-78
2023/07/26 02:27:43;;;;;;;7.65;2.20;;;12.50;99.90;;;;;;4966156;28;20042;-80
2023/07/26 02:30:09;;;;;;;2.72;2.20;;;12.50;99.90;;;;;;4964062;28;20543;-80
2023/07/26 02:32:35;;;;;;;4.03;2.33;;;12.50;99.90;;;;;;4962195;28;20047;-80
2023/07/26 02:35:00;;;;;;;1.90;1.67;;;12.50;99.90;;;;;;4961069;28;20057;-80
2023/07/26 02:37:26;;;;;;;4.07;1.83;;;12.50;99.90;;;;;;4969774;28;20035;-79
2023/07/26 02:39:52;;;;;;;3.63;2.08;;;12.50;99.90;;;;;;4944520;29;20047;-79
2023/07/26 02:42:18;;;;;;;3.22;2.22;;;12.50;99.90;;;;;;4963407;28;20476;-80
2023/07/26 02:44:47;;;;;;;2.45;1.95;;;13.50;99.90;;;;;;4947529;28;20411;-79
2023/07/26 02:47:13;;;;;;;2.58;2.20;;;12.70;99.90;;;;;;4965075;28;20043;-79
2023/07/26 02:49:38;;;;;;;2.70;1.98;;;12.40;99.90;;;;;;4945622;29;20075;-79
2023/07/26 02:52:04;;;;;;;2.90;2.00;;;12.40;99.90;;;;;;4971161;28;20480;-78
2023/07/26 02:54:32;;;;;;;2.33;1.98;;;12.40;99.90;;;;;;4967878;28;20038;-80
2023/07/26 02:56:58;;;;;;;2.33;2.10;;;12.40;99.90;;;;;;4957772;28;20039;-80
2023/07/26 02:59:24;;;;;;;4.53;2.63;;;12.40;99.90;;;;;;4964710;28;20047;-79
2023/07/26 03:01:49;;;;;;;3.58;2.22;;;12.40;99.90;;;;;;4964648;28;20066;-79
2023/07/26 03:04:15;;;;;;;4.10;3.03;;;12.40;99.90;;;;;;4961558;28;20046;-79
2023/07/26 03:06:41;;;;;;;2.65;2.45;;;12.40;99.90;;;;;;4960975;28;20036;-79
2023/07/26 03:09:06;;;;;;;4.50;2.33;;;12.30;99.90;;;;;;4969526;28;20090;-79
2023/07/26 03:11:32;;;;;;;2.95;2.45;;;13.30;99.90;;;;;;4960900;28;20047;-79
2023/07/26 03:13:58;;;;;;;4.43;2.58;;;12.30;99.90;;;;;;4961710;28;20050;-79
2023/07/26 03:16:23;;;;;;;3.10;2.30;;;12.80;99.90;;;;;;4966411;28;20050;-79
2023/07/26 03:18:50;;;;;;;2.95;2.65;;;12.30;99.90;;;;;;4968031;28;20078;-80
2023/07/26 03:21:15;;;;;;;5.32;2.60;;;12.20;99.90;;;;;;4968203;28;20078;-80
2023/07/26 03:23:41;;;;;;;2.50;2.13;;;12.20;99.90;;;;;;4967792;28;20046;-80
2023/07/26 03:26:07;;;;;;;4.80;2.92;;;12.90;99.90;;;;;;4960148;28;20043;-80
2023/07/26 03:28:32;;;;;;;3.67;2.42;;;12.20;99.90;;;;;;4940256;29;20047;-80
2023/07/26 03:31:00;;;;;;;5.55;2.40;;;12.20;99.90;;;;;;4946910;28;20602;-78
2023/07/26 03:33:26;;;;;;;2.63;1.98;;;12.20;99.90;;;;;;4967082;28;20043;-78
2023/07/26 03:35:52;;;;;;;3.17;1.88;;;12.20;99.90;;;;;;4968652;28;20046;-78
2023/07/26 03:38:18;;;;;;;3.00;2.30;;;12.20;99.90;;;;;;4966249;28;20133;-78
2023/07/26 03:40:43;;;;;;;2.47;2.03;;;12.20;99.90;;;;;;4947267;29;20134;-78
2023/07/26 03:43:09;;;;;;;4.13;2.67;;;13.10;99.90;;;;;;4964391;28;20118;-78
2023/07/26 03:45:35;;;;;;;5.10;2.60;;;12.20;99.90;;;;;;4966945;28;20118;-78
2023/07/26 03:48:01;;;;;;;7.18;2.55;;;12.20;99.90;;;;;;4967461;28;20083;-79
2023/07/26 03:50:26;;;;;;;3.53;2.88;;;13.80;99.90;;;;;;4965413;28;20368;-78
2023/07/26 03:52:52;;;;;;;4.70;2.55;;;12.10;99.90;;;;;;4963861;28;20086;-78
2023/07/26 03:55:18;;;;;;;4.55;3.05;;;12.10;99.90;;;;;;4973220;28;20111;-77
2023/07/26 03:57:44;;;;;;;5.00;3.35;;;12.10;99.90;;;;;;4983046;28;20070;-78
2023/07/26 04:00:10;;;;;;;4.50;2.95;;;12.20;99.90;;;;;;4967862;28;20455;-78
2023/07/26 04:02:36;;;;;;;4.13;2.50;;;12.20;99.90;;;;;;4964494;28;20118;-78
2023/07/26 04:05:02;;;;;;;4.10;2.83;;;12.20;99.90;;;;;;4963999;28;20126;-78
2023/07/26 04:07:27;;;;;;;3.00;2.53;;;12.20;99.90;;;;;;4965495;28;20486;-78
2023/07/26 04:09:53;;;;;;;4.50;2.58;;;12.20;99.90;;;;;;4967249;28;20035;-78
2023/07/26 04:12:19;;;;;;;6.13;2.92;;;12.40;99.90;;;;;;4966437;28;20066;-78
2023/07/26 04:14:44;;;;;;;2.78;2.50;;;12.30;99.90;;;;;;4962846;28;20365;-79
2023/07/26 04:17:10;;;;;;;2.67;2.45;;;12.30;99.90;;;;;;4971841;28;20047;-80
2023/07/26 04:19:36;;;;;;;4.65;2.53;;;13.60;99.90;;;;;;4965148;28;20094;-78
2023/07/26 04:22:01;;;;;;;5.25;2.88;;;12.30;99.90;;;;;;4972498;28;20070;-80
2023/07/26 04:24:27;;;;;;;4.80;2.50;;;12.40;99.90;;;;;;4949019;28;20534;-81
2023/07/26 04:26:53;;;;;;;4.15;2.65;;;12.50;99.90;;;;;;4963363;28;20062;-80
2023/07/26 04:29:19;;;;;;;3.72;2.65;;;12.40;99.90;;;;;;4964327;28;20055;-80
2023/07/26 04:31:44;;;;;;;3.83;2.40;;;12.30;99.90;;;;;;4968028;28;20407;-81
2023/07/26 04:34:12;;;;;;;4.30;2.40;;;12.80;99.90;;;;;;4949594;28;20050;-80
2023/07/26 04:36:38;;;;;;;3.58;2.30;;;13.20;99.90;;;;;;4964854;28;20491;-80
2023/07/26 04:39:04;;;;;;;4.43;2.15;;;12.30;99.90;;;;;;4969084;28;20042;-80
2023/07/26 04:41:29;;;;;;;5.13;2.30;;;12.40;99.90;;;;;;4954968;28;20059;-81
2023/07/26 04:43:55;;;;;;;5.97;2.20;;;13.80;99.90;;;;;;4968328;28;20047;-80
2023/07/26 04:46:20;;;;;;;4.15;2.08;;;12.40;99.90;;;;;;4958648;28;20070;-80
2023/07/26 04:48:46;;;;;;;3.30;2.20;;;12.40;99.90;;;;;;4966122;28;20035;-80
2023/07/26 04:51:12;;;;;;;3.55;1.95;;;12.40;99.90;;;;;;4969324;28;20054;-80
2023/07/26 04:53:38;;;;;;;2.30;1.70;;;12.40;99.90;;;;;;4963492;28;20051;-80
2023/07/26 04:56:04;;;;;;;4.55;2.38;;;12.40;99.90;;;;;;4962180;28;20047;-80
2023/07/26 04:58:30;;;;;;;3.20;2.13;;;12.50;99.90;;;;;;4964944;28;20043;-77
2023/07/26 05:00:55;;;;;;;3.00;2.13;;;12.50;99.90;;;;;;4966433;28;20074;-78
2023/07/26 05:03:21;;;;;;;4.05;1.83;;;12.90;99.90;;;;;;4965678;28;20047;-77
2023/07/26 05:05:50;;;;;;;4.20;2.13;;;12.50;99.90;;;;;;4962585;28;20411;-77
2023/07/26 05:08:16;;;;;;;4.72;1.80;;;13.40;99.90;;;;;;4963281;28;20094;-78
2023/07/26 05:10:42;;;;;;;4.55;1.85;;;13.10;99.90;;;;;;4965897;28;20031;-77
2023/07/26 05:13:08;;;;;;;4.55;1.88;;;12.60;99.90;;;;;;4966245;28;20458;-78
2023/07/26 05:15:33;;;;;;;5.13;2.08;;;12.60;99.90;;;;;;4964688;28;20050;-77
2023/07/26 05:17:59;;;;;;;2.88;1.80;;;12.60;99.90;;;;;;4968511;28;20053;-79
2023/07/26 05:20:25;;;;;;;2.00;1.90;;;14.20;99.90;;;;;;4966483;28;20073;-80
2023/07/26 05:22:50;;;;;;;2.42;1.70;;;12.60;99.90;;;;;;4962671;28;20047;-80
2023/07/26 05:25:18;;;;;;;6.93;2.45;;;13.10;99.90;;;;;;4962199;28;20039;-79
2023/07/26 05:27:44;;;;;;;4.78;1.95;;;12.60;99.90;;;;;;4983220;28;20038;-80
2023/07/26 05:30:10;;;;;;;4.85;1.98;;;12.60;99.90;;;;;;4973157;28;20501;-80
2023/07/26 05:32:36;;;;;;;4.00;1.40;;;12.60;99.90;;;;;;4963017;28;20054;-80
2023/07/26 05:35:02;;;;;;;3.03;1.58;;;12.60;99.90;;;;;;4962549;28;20051;-77
2023/07/26 05:37:30;;;;;;;2.70;1.70;;;12.60;99.90;;;;;;4970464;28;20042;-77
2023/07/26 05:39:56;;;;;;;3.90;1.95;;;12.60;99.90;;;;;;4967604;28;20046;-78
2023/07/26 05:42:24;;;;;;;4.50;2.28;;;13.00;99.90;;;;;;4966349;28;20049;-77
2023/07/26 05:44:54;;;;;;;4.40;2.70;;;12.50;99.90;;;;;;4956584;28;20126;-79
2023/07/26 05:47:19;;;;;;;2.85;2.55;;;12.60;99.90;;;;;;4964019;28;20118;-79
2023/07/26 05:49:48;;;;;;;3.78;2.20;;;12.60;99.90;;;;;;4967304;28;20030;-79
2023/07/26 05:52:13;;;;;;;4.78;2.17;;;13.60;99.90;;;;;;4965726;28;20506;-78
2023/07/26 05:54:39;;;;;;;3.67;1.83;;;12.60;99.90;;;;;;4963372;28;20051;-78
2023/07/26 05:57:05;;;;;;;4.25;1.85;;;12.60;99.90;;;;;;4962236;28;20070;-78
2023/07/26 05:59:31;;;;;;;1.58;1.27;;;12.60;99.90;;;;;;4945181;28;20043;-77
2023/07/26 06:01:58;;;;;;;3.35;1.95;;;12.50;99.90;;;;;;4962228;28;20039;-78
2023/07/26 06:04:25;;;;;;;3.00;1.65;;;12.60;99.90;;;;;;4961756;28;20051;-77
2023/07/26 06:06:51;;;;;;;6.65;2.13;;;13.00;99.90;;;;;;4953216;28;20039;-77
2023/07/26 06:09:17;;;;;;;4.93;1.85;;;13.60;99.90;;;;;;4944585;29;20057;-78
2023/07/26 06:11:43;;;;;;;3.95;1.85;;;12.60;99.90;;;;;;4964054;28;20055;-78
2023/07/26 06:14:08;;;;;;;3.25;1.80;;;12.70;99.90;;;;;;4964374;28;20042;-78
2023/07/26 06:16:34;;;;;;;3.25;2.05;;;12.60;99.90;;;;;;4964375;28;20039;-78
2023/07/26 06:19:00;;;;;;;2.55;1.77;;;12.70;99.90;;;;;;4953413;28;20074;-77
2023/07/26 06:21:25;;;;;;;3.97;1.85;;;14.00;99.90;;;;;;4964748;28;20063;-77
2023/07/26 06:23:51;;;;;;;2.30;1.83;;;12.70;99.90;;;;;;4965748;28;20039;-77
2023/07/26 06:26:17;;;;;;;2.15;1.60;;;12.70;99.90;;;;;;4960321;28;20035;-78
2023/07/26 06:28:42;;;;;;;2.78;1.90;;;12.70;99.90;;;;;;4954688;28;20047;-79
2023/07/26 06:31:08;;;;;;;4.38;1.83;;;13.60;99.90;;;;;;4960070;28;20105;-78
2023/07/26 06:33:34;;;;;;;8.13;2.38;;;12.70;99.90;;;;;;4963642;28;20073;-78
2023/07/26 06:36:00;;;;;;;3.20;1.70;;;12.80;99.90;;;;;;4961322;28;20051;-79
2023/07/26 06:38:25;;;;;;;3.50;2.45;;;13.00;99.90;;;;;;4961638;28;20488;-79
2023/07/26 06:40:51;;;;;;;5.20;2.53;;;14.50;99.90;;;;;;4968843;28;20043;-79
2023/07/26 06:43:16;;;;;;;2.72;1.77;;;12.90;99.90;;;;;;4944176;29;20397;-78
2023/07/26 06:45:50;;;;;;;5.15;2.30;;;14.60;99.90;;;;;;4963095;28;20130;-79
2023/07/26 06:48:16;;;;;;;3.83;1.73;;;12.90;99.90;;;;;;4964102;28;20158;-78
2023/07/26 06:50:42;;;;;;;7.53;2.58;;;13.20;99.90;;;;;;4966232;28;20422;-79
2023/07/26 06:53:08;;;;;;;1.55;1.35;;;12.90;99.90;;;;;;4947751;29;20055;-79
2023/07/26 06:55:38;;;;;;;3.60;2.50;;;12.90;99.90;;;;;;4964539;28;20047;-79
2023/07/26 06:58:04;;;;;;;4.28;1.52;;;12.90;99.90;;;;;;4959825;28;20069;-78
2023/07/26 07:00:30;;;;;;;3.90;1.85;;;14.40;99.90;;;;;;4980035;28;20054;-79
2023/07/26 07:03:00;;;;;;;3.15;1.60;;;12.80;99.90;;;;;;4968303;28;20070;-79
2023/07/26 07:05:29;;;;;;;5.32;2.08;;;13.50;99.90;;;;;;4950488;28;20101;-78
2023/07/26 07:07:55;;;;;;;2.33;1.42;;;12.80;99.90;;;;;;4965439;28;20070;-79
2023/07/26 07:10:22;;;;;;;5.53;1.77;;;12.80;99.90;;;;;;4962925;28;20074;-78
2023/07/26 07:12:51;;;;;;;6.38;2.10;;;12.80;99.90;;;;;;4966234;28;20050;-79
2023/07/26 07:15:16;;;;;;;4.43;1.73;;;13.80;99.90;;;;;;4965117;28;20047;-79
2023/07/26 07:17:42;;;;;;;3.72;1.10;;;12.90;99.90;;;;;;4948206;28;20046;-79
2023/07/26 07:20:08;;;;;;;4.13;1.35;;;13.00;99.90;;;;;;4968225;28;20038;-79
2023/07/26 07:22:37;;;;;;;1.38;1.20;;;12.90;99.90;;;;;;4967670;28;20372;-78
2023/07/26 07:25:03;;;;;;;2.65;1.17;;;12.90;99.90;;;;;;4957191;28;20491;-79
2023/07/26 07:27:29;;;;;;;1.92;1.15;;;12.80;99.90;;;;;;4965485;28;20126;-78
2023/07/26 07:29:55;;;;;;;1.98;1.08;;;12.90;99.90;;;;;;4950090;28;20172;-78
2023/07/26 07:32:21;;;;;;;3.63;1.02;;;12.90;99.90;;;;;;4968297;28;20057;-78
2023/07/26 07:34:47;;;;;;;2.13;1.10;;;14.40;99.90;;;;;;4948818;28;20051;-79
2023/07/26 07:37:12;;;;;;;2.25;1.02;;;12.80;99.90;;;;;;4947180;29;20158;-78
2023/07/26 07:39:38;;;;;;;3.42;1.20;;;12.90;99.90;;;;;;4972719;28;20091;-79
2023/07/26 07:42:04;;;;;;;1.17;1.08;;;13.00;99.90;;;;;;4946959;29;20193;-79
2023/07/26 07:44:30;;;;;;;1.58;1.48;;;13.00;99.90;;;;;;4963527;28;20046;-79
2023/07/26 07:46:56;;;;;;;1.83;1.70;;;13.00;99.90;;;;;;4966666;28;20051;-79
2023/07/26 07:49:22;;;;;;;1.83;1.42;;;13.10;99.90;;;;;;4950867;28;20101;-78
2023/07/26 07:51:48;;;;;;;2.10;1.95;;;13.10;99.90;;;;;;4965551;28;20406;-79
2023/07/26 07:54:14;;;;;;;5.88;1.85;;;13.20;99.90;;;;;;4964072;28;20146;-78
2023/07/26 07:56:40;;;;;;;3.15;2.38;;;13.20;99.90;;;;;;4947235;28;20082;-79
2023/07/26 07:59:06;;;;;;;4.45;2.00;;;13.10;99.90;;;;;;4967335;28;20526;-79
2023/07/26 08:01:32;;;;;;;3.75;2.25;;;14.40;99.90;;;;;;4968407;28;20384;-78
2023/07/26 08:04:00;;;;;;;5.07;2.35;;;13.30;99.90;;;;;;4949566;28;20478;-78
2023/07/26 08:06:26;;;;;;;3.00;2.30;;;13.40;99.90;;;;;;4967180;28;20047;-79
2023/07/26 08:08:52;;;;;;;2.10;1.50;;;13.50;99.90;;;;;;4966371;28;20449;-79
2023/07/26 08:11:18;;;;;;;3.35;2.13;;;14.70;99.90;;;;;;4966951;28;20046;-79
2023/07/26 08:13:43;;;;;;;2.28;1.50;;;14.30;99.90;;;;;;4967728;28;20114;-79
2023/07/26 08:16:10;;;;;;;1.60;1.45;;;13.50;99.90;;;;;;4975395;28;20078;-79
2023/07/26 08:18:37;;;;;;;1.02;0.90;;;13.50;99.90;;;;;;4968796;28;20042;-79
2023/07/26 08:21:03;;;;;;;3.95;1.00;;;13.60;99.90;;;;;;4963616;28;20067;-79
2023/07/26 08:23:30;;;;;;;1.75;1.02;;;13.60;99.90;;;;;;4946495;29;20039;-79
2023/07/26 08:25:56;;;;;;;1.83;1.10;;;13.70;99.90;;;;;;4963886;28;20031;-79
2023/07/26 08:28:22;;;;;;;2.08;1.30;;;13.70;99.90;;;;;;4968500;28;20047;-79
2023/07/26 08:30:47;;;;;;;1.83;1.30;;;13.70;99.90;;;;;;4963096;28;20314;-79
2023/07/26 08:33:13;;;;;;;3.35;1.48;;;13.80;99.90;;;;;;4967270;28;20487;-79
2023/07/26 08:35:42;;;;;;;4.07;1.88;;;13.90;99.90;;;;;;4949654;29;20076;-79
2023/07/26 08:38:08;;;;;;;1.67;1.50;;;14.30;99.90;;;;;;4966845;28;20030;-79
2023/07/26 08:40:34;;;;;;;3.08;2.42;;;14.00;99.90;;;;;;4949262;28;20458;-79
2023/07/26 08:43:04;;;;;;;2.78;2.28;;;14.10;99.90;;;;;;4947173;28;20039;-79
2023/07/26 08:45:30;;;;;;;4.28;2.92;;;14.20;99.90;;;;;;4961092;28;20507;-79
2023/07/26 08:47:56;;;;;;;4.18;2.50;;;14.30;99.90;;;;;;4947435;28;20031;-79
2023/07/26 08:50:22;;;;;;;5.18;2.85;;;14.40;99.90;;;;;;4963724;28;20054;-79
2023/07/26 08:52:48;;;;;;;5.30;3.00;;;14.40;99.90;;;;;;4946112;28;20043;-80
2023/07/26 08:55:15;;;;;;;2.63;2.17;;;14.40;99.90;;;;;;4966299;28;20053;-79
2023/07/26 08:57:42;;;;;;;3.25;2.95;;;14.50;99.90;;;;;;4933545;28;20054;-79
2023/07/26 09:00:11;;;;;;;3.10;2.90;;;14.50;99.90;;;;;;4963923;28;20054;-79
2023/07/26 09:02:39;;;;;;;5.95;3.10;;;14.50;99.90;;;;;;4962819;28;20039;-79
2023/07/26 09:05:06;;;;;;;3.22;2.92;;;15.20;99.90;;;;;;4947700;28;20054;-79
2023/07/26 09:07:32;;;;;;;3.50;2.78;;;14.50;99.90;;;;;;4966227;28;20446;-79
2023/07/26 09:09:57;;;;;;;2.83;2.17;;;14.50;99.90;;;;;;4964707;28;20043;-79
2023/07/26 09:12:25;;;;;;;3.67;2.30;;;14.60;99.90;;;;;;4962502;28;20078;-79
2023/07/26 09:14:54;;;;;;;2.90;2.60;;;14.60;99.90;;;;;;4962865;28;20047;-79
2023/07/26 09:17:19;;;;;;;5.05;3.72;;;14.80;99.90;;;;;;4966085;28;20038;-79
2023/07/26 09:19:45;;;;;;;4.82;3.00;;;15.50;99.90;;;;;;4966266;28;20041;-78
2023/07/26 09:22:10;;;;;;;2.88;2.40;;;14.70;99.90;;;;;;4966096;28;20076;-79
2023/07/26 09:24:39;;;;;;;2.88;2.67;;;14.80;99.90;;;;;;4965370;28;20402;-79
2023/07/26 09:27:08;;;;;;;3.90;3.13;;;14.80;99.90;;;;;;4964454;28;20092;-79
2023/07/26 09:29:35;;;;;;;3.42;3.13;;;14.90;99.90;;;;;;4962169;28;20050;-79
2023/07/26 09:32:01;;;;;;;6.05;2.97;;;15.40;99.90;;;;;;4963521;28;20094;-79
2023/07/26 09:34:28;;;;;;;4.88;2.88;;;15.10;99.90;;;;;;4965470;28;20050;-79
2023/07/26 09:36:56;;;;;;;3.25;2.65;;;15.20;99.90;;;;;;4947943;28;20050;-81
2023/07/26 09:39:25;;;;;;;3.95;2.50;;;15.30;99.90;;;;;;4963623;28;20035;-79
2023/07/26 09:42:08;;;;;;;2.88;2.17;;;15.40;99.90;;;;;;4963067;28;20031;-79
2023/07/26 09:44:35;;;;;;;4.43;2.25;;;15.30;99.90;;;;;;4938970;29;20043;-79
2023/07/26 09:47:01;;;;;;;5.22;2.60;;;15.10;99.90;;;;;;4971032;28;20051;-79
2023/07/26 09:49:29;;;;;;;3.22;2.40;;;14.90;99.90;;;;;;4962456;28;20126;-79
2023/07/26 09:51:57;;;;;;;2.35;2.05;;;14.70;99.90;;;;;;4962300;28;20043;-79
2023/07/26 09:54:31;;;;;;;2.40;2.00;;;15.50;99.90;;;;;;4954950;28;20120;-79
2023/07/26 09:56:58;;;;;;;3.13;1.80;;;14.50;99.90;;;;;;4964369;28;20031;-80
2023/07/26 09:59:26;;;;;;;2.47;2.28;;;14.60;99.90;;;;;;4982019;28;20049;-80
2023/07/26 10:01:52;;;;;;;3.95;2.35;;;15.30;99.90;;;;;;4977019;28;20487;-79
2023/07/26 10:04:51;;;;;;;3.08;2.00;;;14.90;99.90;;;;;;4965797;28;20050;-79
2023/07/26 10:07:18;;;;;;;4.40;2.40;;;14.80;99.90;;;;;;4964795;28;20439;-79
2023/07/26 10:09:45;;;;;;;2.33;1.80;;;14.90;99.90;;;;;;4932530;28;20050;-79
2023/07/26 10:12:12;;;;;;;3.35;1.92;;;15.00;99.90;;;;;;4963438;28;20043;-79
2023/07/26 10:14:38;;;;;;;2.55;1.70;;;15.20;99.90;;;;;;4962035;28;20098;-79
2023/07/26 10:17:05;;;;;;;2.97;2.17;;;16.50;99.90;;;;;;4963845;28;20050;-79
2023/07/26 10:19:31;;;;;;;2.53;1.50;;;15.30;99.90;;;;;;4965429;28;20122;-81
2023/07/26 10:21:57;;;;;;;1.80;1.40;;;15.40;99.90;;;;;;4948651;28;20043;-79
2023/07/26 10:24:24;;;;;;;2.25;1.15;;;15.50;99.90;;;;;;4947695;28;20415;-79
2023/07/26 10:26:50;;;;;;;1.88;1.40;;;15.60;99.90;;;;;;4964731;28;20038;-80
2023/07/26 10:29:20;;;;;;;1.08;0.63;;;15.70;99.90;;;;;;4965305;28;20107;-80
2023/07/26 10:31:46;;;;;;;1.42;1.00;;;15.80;99.90;;;;;;4953603;28;20046;-79
2023/07/26 10:34:20;;;;;;;1.77;1.40;;;15.90;99.90;;;;;;4972957;28;20141;-80
2023/07/26 10:36:46;;;;;;;1.90;1.60;;;16.00;99.90;;;;;;4973281;28;20058;-81
2023/07/26 10:39:12;;;;;;;1.85;1.45;;;16.10;99.90;;;;;;4973242;28;20043;-80
2023/07/26 10:41:47;;;;;;;1.70;1.38;;;16.10;99.90;;;;;;4972582;28;20039;-80
2023/07/26 10:44:13;;;;;;;2.67;1.92;;;16.10;99.90;;;;;;4971391;28;20039;-81
2023/07/26 10:47:05;;;;;;;2.60;1.70;;;16.20;99.90;;;;;;4972614;28;20129;-80
2023/07/26 10:49:33;;;;;;;1.80;1.50;;;16.30;99.90;;;;;;4957483;28;20086;-80
2023/07/26 10:52:02;;;;;;;2.50;1.50;;;15.80;99.90;;;;;;4973179;28;20475;-80
2023/07/26 10:54:33;;;;;;;1.85;1.50;;;16.40;99.90;;;;;;4972391;28;20038;-80
2023/07/26 10:57:15;;;;;;;2.25;1.88;;;16.40;99.90;;;;;;4973513;28;20035;-80
2023/07/26 11:00:00;;;;;;;3.80;1.80;;;16.50;99.90;;;;;;4959762;28;20233;-80
2023/07/26 11:02:44;;;;;;;1.27;1.15;;;16.50;99.90;;;;;;4972697;28;20130;-80
2023/07/26 11:05:21;;;;;;;1.60;1.02;;;16.60;99.90;;;;;;4973208;28;20047;-80
2023/07/26 11:07:59;;;;;;;1.25;1.10;;;16.70;99.90;;;;;;4973208;28;20046;-81
2023/07/26 11:10:35;;;;;;;3.58;1.40;;;16.90;99.90;;;;;;4971710;28;20039;-81
2023/07/26 11:13:18;;;;;;;2.75;1.33;;;16.90;99.90;;;;;;4972354;28;20138;-80
2023/07/26 11:15:46;;;;;;;1.48;1.23;;;16.90;99.90;;;;;;4957921;28;20042;-80
2023/07/26 11:18:13;;;;;;;1.08;0.50;;;17.30;99.90;;;;;;4973549;28;20126;-80
2023/07/26 11:20:50;;;;;;;2.35;0.80;;;17.30;99.90;;;;;;4973186;28;20035;-80
2023/07/26 11:23:24;;;;;;;0.47;0.45;;;16.60;99.90;;;;;;4972992;28;20047;-80
2023/07/26 11:25:54;;;;;;;1.38;0.60;;;16.20;99.90;;;;;;4972905;28;20043;-79
2023/07/26 11:28:22;;;;;;;2.08;1.05;;;16.00;99.90;;;;;;4993716;28;20035;-79
2023/07/26 11:30:50;;;;;;;1.48;1.00;;;15.90;99.90;;;;;;4973272;28;20411;-80
2023/07/26 11:33:45;;;;;;;1.83;0.90;;;15.80;99.90;;;;;;4965095;28;20076;-80
2023/07/26 11:36:19;;;;;;;4.25;1.60;;;15.40;99.90;;;;;;4944896;28;20098;-80
2023/07/26 11:38:45;;;;;;;4.57;2.08;;;15.50;99.90;;;;;;4958352;28;20126;-80
2023/07/26 11:41:17;;;;;;;2.67;1.15;;;15.40;99.90;;;;;;4966653;28;20070;-80
2023/07/26 11:43:43;;;;;;;2.17;1.00;;;15.30;99.90;;;;;;4948210;29;20082;-80
2023/07/26 11:46:10;;;;;;;3.75;1.15;;;15.20;99.90;;;;;;4949546;28;20085;-78
2023/07/26 11:48:35;;;;;;;1.88;1.02;;;14.80;99.90;;;;;;4965395;28;20039;-77
2023/07/26 11:51:05;;;;;;;1.05;0.98;;;15.40;99.90;;;;;;4964080;28;20046;-77
2023/07/26 11:53:37;;;;;;;1.67;1.00;;;15.10;99.90;;;;;;4964840;28;20070;-78
2023/07/26 11:56:03;;;;;;;2.13;1.17;;;15.10;99.90;;;;;;4964072;28;20075;-79
2023/07/26 11:58:33;;;;;;;2.00;1.15;;;15.50;99.90;;;;;;4965399;28;20629;-79
2023/07/26 12:00:59;;;;;;;3.58;1.42;;;15.00;99.90;;;;;;4969680;28;20062;-78
2023/07/26 12:03:27;;;;;;;2.05;1.27;;;15.00;99.90;;;;;;4964561;28;20050;-79
2023/07/26 12:05:53;;;;;;;1.73;1.55;;;15.40;99.90;;;;;;4963585;28;20360;-79
2023/07/26 12:08:20;;;;;;;2.25;1.88;;;15.10;99.90;;;;;;4964458;28;20056;-79
2023/07/26 12:10:47;;;;;;;3.60;1.60;;;15.30;99.90;;;;;;4967523;28;20491;-78
2023/07/26 12:13:21;;;;;;;5.57;1.63;;;15.50;99.90;;;;;;4949715;28;20403;-79
2023/07/26 12:16:09;;;;;;;3.85;1.45;;;15.70;99.90;;;;;;4956439;28;20514;-79
2023/07/26 12:18:35;;;;;;;3.33;1.40;;;15.90;99.90;;;;;;4965397;28;20054;-79
2023/07/26 12:21:08;;;;;;;3.28;1.42;;;16.10;99.90;;;;;;4961827;28;20062;-78
2023/07/26 12:23:57;;;;;;;1.27;1.08;;;16.40;99.90;;;;;;4965910;28;20047;-79
2023/07/26 12:26:31;;;;;;;2.70;1.20;;;16.50;99.90;;;;;;4966363;28;20074;-79
2023/07/26 12:28:58;;;;;;;1.00;0.88;;;16.70;99.90;;;;;;4964259;28;20094;-79
2023/07/26 12:31:30;;;;;;;4.60;1.50;;;16.90;99.90;;;;;;4973585;28;20065;-79
2023/07/26 12:33:56;;;;;;;3.17;1.38;;;17.00;99.90;;;;;;4962918;28;20035;-79
2023/07/26 12:36:23;;;;;;;2.45;1.38;;;17.20;99.90;;;;;;4946441;28;20050;-79
2023/07/26 12:38:49;;;;;;;1.85;1.00;;;17.30;99.90;;;;;;4966872;28;20130;-79
2023/07/26 12:41:15;;;;;;;2.15;1.30;;;17.40;99.90;;;;;;4949299;28;20082;-79
2023/07/26 12:43:43;;;;;;;2.70;0.77;;;17.40;99.90;;;;;;4964015;28;20185;-79
2023/07/26 12:46:09;;;;;;;3.42;0.95;;;17.30;99.90;;;;;;4964328;28;20039;-78
2023/07/26 12:48:35;;;;;;;1.45;1.00;;;17.30;99.90;;;;;;4964387;28;20051;-78